createdAt,value
2019-03-30T00:02:28.266Z,12.47
2019-03-30T00:04:56.994Z,13.15
2019-03-30T00:07:25.421Z,11.40
2019-03-30T00:09:53.858Z,12.45
2019-03-30T00:12:23.124Z,11.70
2019-03-30T00:14:51.745Z,10.80
2019-03-30T00:17:20.191Z,10.53
2019-03-30T00:19:48.834Z,10.30
2019-03-30T00:22:17.298Z,10.38
2019-03-30T00:24:45.996Z,10.15
2019-03-30T00:27:14.410Z,9.08
2019-03-30T00:29:42.837Z,9.00
2019-03-30T00:32:11.265Z,10.10
2019-03-30T00:34:39.693Z,10.88
2019-03-30T00:37:08.347Z,9.70
2019-03-30T00:39:37.041Z,9.60
2019-03-30T00:42:05.719Z,10.10
2019-03-30T00:44:34.375Z,10.70
2019-03-30T00:47:02.835Z,10.43
2019-03-30T00:49:31.275Z,10.45
2019-03-30T00:51:59.693Z,10.53
2019-03-30T00:54:28.133Z,11.70
2019-03-30T00:56:56.558Z,9.60
2019-03-30T00:59:25.287Z,8.88
2019-03-30T01:01:53.997Z,10.60
2019-03-30T01:04:22.433Z,9.45
2019-03-30T01:06:50.861Z,11.63
2019-03-30T01:09:19.285Z,9.50
2019-03-30T01:11:47.932Z,9.65
2019-03-30T01:14:16.401Z,9.80
2019-03-30T01:16:45.074Z,9.48
2019-03-30T01:19:13.497Z,10.65
2019-03-30T01:21:41.925Z,10.95
2019-03-30T01:24:10.346Z,9.88
2019-03-30T01:26:38.997Z,10.88
2019-03-30T01:29:07.711Z,10.93
2019-03-30T01:31:36.360Z,10.23
2019-03-30T01:34:04.813Z,9.85
2019-03-30T01:36:33.458Z,9.73
2019-03-30T01:39:01.914Z,9.30
2019-03-30T01:41:30.345Z,9.50
2019-03-30T01:43:58.779Z,9.85
2019-03-30T01:46:27.197Z,8.13
2019-03-30T01:48:55.614Z,8.58
2019-03-30T01:51:24.113Z,8.93
2019-03-30T01:53:52.533Z,9.00
2019-03-30T01:56:21.218Z,8.63
2019-03-30T01:58:49.848Z,9.75
2019-03-30T02:01:18.527Z,7.67
2019-03-30T02:03:47.062Z,10.08
2019-03-30T02:06:15.817Z,10.00
2019-03-30T02:08:44.239Z,8.18
2019-03-30T02:11:12.896Z,9.33
2019-03-30T02:13:41.354Z,8.63
2019-03-30T02:16:10.013Z,8.93
2019-03-30T02:18:38.529Z,9.65
2019-03-30T02:21:07.169Z,9.33
2019-03-30T02:23:35.987Z,9.43
2019-03-30T02:26:04.706Z,9.03
2019-03-30T02:28:33.124Z,7.80
2019-03-30T02:31:01.554Z,8.80
2019-03-30T02:33:30.224Z,9.18
2019-03-30T02:35:58.654Z,9.78
2019-03-30T02:38:27.067Z,8.93
2019-03-30T02:40:55.501Z,8.40
2019-03-30T02:43:24.174Z,10.53
2019-03-30T02:45:52.615Z,10.28
2019-03-30T02:48:21.039Z,9.00
2019-03-30T02:50:50.788Z,8.05
2019-03-30T02:53:19.461Z,9.18
2019-03-30T02:55:48.147Z,9.40
2019-03-30T02:58:16.591Z,9.63
2019-03-30T03:00:45.008Z,11.83
2019-03-30T03:03:13.652Z,10.35
2019-03-30T03:05:42.190Z,11.03
2019-03-30T03:08:10.855Z,10.30
2019-03-30T03:10:39.556Z,9.75
2019-03-30T03:13:07.982Z,10.95
2019-03-30T03:15:36.395Z,8.83
2019-03-30T03:18:04.847Z,10.05
2019-03-30T03:20:33.260Z,9.23
2019-03-30T03:23:01.900Z,10.82
2019-03-30T03:25:30.358Z,8.83
2019-03-30T03:27:58.797Z,8.60
2019-03-30T03:30:27.211Z,9.90
2019-03-30T03:32:55.667Z,9.60
2019-03-30T03:35:24.086Z,10.03
2019-03-30T03:37:52.519Z,9.33
2019-03-30T03:40:20.925Z,8.18
2019-03-30T03:42:49.446Z,9.90
2019-03-30T03:45:17.846Z,8.95
2019-03-30T03:47:46.293Z,9.50
2019-03-30T03:50:36.000Z,10.23
2019-03-30T03:53:04.858Z,8.98
2019-03-30T03:55:35.311Z,9.63
2019-03-30T03:58:05.631Z,9.80
2019-03-30T04:00:35.562Z,10.00
2019-03-30T04:03:05.987Z,9.10
2019-03-30T04:05:36.395Z,8.45
2019-03-30T04:08:07.730Z,9.73
2019-03-30T04:10:38.637Z,10.35
2019-03-30T04:13:08.679Z,9.43
2019-03-30T04:15:37.174Z,9.23
2019-03-30T04:18:05.825Z,11.35
2019-03-30T04:20:34.285Z,10.80
2019-03-30T04:23:02.719Z,9.25
2019-03-30T04:25:31.390Z,9.48
2019-03-30T04:28:00.025Z,8.98
2019-03-30T04:30:28.482Z,9.60
2019-03-30T04:32:56.923Z,9.50
2019-03-30T04:35:25.581Z,10.50
2019-03-30T04:37:54.014Z,9.90
2019-03-30T04:40:22.649Z,9.53
2019-03-30T04:42:51.335Z,10.08
2019-03-30T04:45:20.010Z,9.65
2019-03-30T04:47:48.695Z,8.98
2019-03-30T04:50:17.150Z,7.78
2019-03-30T04:52:45.588Z,9.10
2019-03-30T04:55:14.010Z,9.45
2019-03-30T04:57:42.454Z,8.40
2019-03-30T05:00:11.041Z,9.35
2019-03-30T05:02:39.470Z,8.68
2019-03-30T05:05:08.990Z,9.10
2019-03-30T05:07:37.636Z,8.68
2019-03-30T05:10:07.739Z,8.40
2019-03-30T05:12:36.230Z,8.85
2019-03-30T05:15:05.990Z,8.88
2019-03-30T05:17:46.791Z,8.53
2019-03-30T05:20:06.782Z,10.03
2019-03-30T05:22:35.201Z,9.45
2019-03-30T05:25:03.827Z,9.48
2019-03-30T05:27:32.254Z,8.55
2019-03-30T05:30:00.913Z,9.38
2019-03-30T05:32:29.354Z,8.70
2019-03-30T05:34:57.770Z,9.78
2019-03-30T05:37:26.192Z,9.48
2019-03-30T05:39:54.620Z,8.95
2019-03-30T05:42:23.269Z,9.35
2019-03-30T05:44:51.697Z,10.00
2019-03-30T05:47:20.366Z,9.58
2019-03-30T05:49:49.043Z,9.63
2019-03-30T05:52:26.337Z,9.30
2019-03-30T05:54:47.901Z,8.98
2019-03-30T05:57:16.314Z,8.13
2019-03-30T05:59:44.756Z,8.58
2019-03-30T06:02:13.425Z,8.38
2019-03-30T06:04:42.072Z,8.78
2019-03-30T06:07:10.577Z,8.15
2019-03-30T06:09:39.000Z,8.68
2019-03-30T06:12:07.418Z,8.03
2019-03-30T06:14:36.153Z,7.47
2019-03-30T06:17:04.846Z,7.35
2019-03-30T06:19:33.290Z,7.90
2019-03-30T06:22:01.699Z,7.27
2019-03-30T06:24:30.348Z,7.20
2019-03-30T06:26:59.058Z,6.80
2019-03-30T06:29:27.481Z,6.63
2019-03-30T06:31:55.908Z,6.40
2019-03-30T06:34:24.421Z,5.90
2019-03-30T06:36:52.849Z,6.77
2019-03-30T06:39:21.287Z,6.87
2019-03-30T06:41:49.704Z,5.90
2019-03-30T06:44:18.271Z,6.45
2019-03-30T06:46:46.689Z,6.00
2019-03-30T06:49:15.382Z,5.87
2019-03-30T06:51:44.030Z,5.30
2019-03-30T06:54:14.730Z,5.30
2019-03-30T06:56:42.712Z,5.20
2019-03-30T06:59:11.134Z,5.83
2019-03-30T07:01:39.720Z,6.03
2019-03-30T07:04:11.124Z,5.70
2019-03-30T07:06:39.984Z,5.87
2019-03-30T07:09:08.412Z,6.90
2019-03-30T07:11:39.898Z,5.57
2019-03-30T07:14:08.562Z,4.80
2019-03-30T07:16:37.230Z,5.53
2019-03-30T07:19:05.646Z,5.40
2019-03-30T07:21:34.069Z,6.80
2019-03-30T07:24:02.734Z,7.20
2019-03-30T07:26:31.157Z,6.87
2019-03-30T07:28:59.583Z,6.73
2019-03-30T07:31:28.012Z,6.90
2019-03-30T07:33:56.430Z,7.50
2019-03-30T07:36:24.851Z,8.20
2019-03-30T07:38:53.278Z,7.33
2019-03-30T07:41:21.705Z,7.50
2019-03-30T07:43:50.371Z,8.27
2019-03-30T07:46:19.734Z,7.27
2019-03-30T07:48:48.397Z,8.77
2019-03-30T07:51:16.829Z,6.50
2019-03-30T07:53:45.513Z,8.53
2019-03-30T07:56:13.935Z,8.50
2019-03-30T07:58:42.606Z,8.40
2019-03-30T08:01:11.089Z,9.03
2019-03-30T08:03:39.538Z,8.77
2019-03-30T08:06:08.189Z,8.00
2019-03-30T08:08:36.882Z,8.87
2019-03-30T08:11:05.313Z,10.13
2019-03-30T08:13:33.967Z,8.03
2019-03-30T08:16:02.620Z,8.60
2019-03-30T08:18:31.330Z,8.40
2019-03-30T08:20:59.762Z,7.97
2019-03-30T08:23:39.787Z,8.57
2019-03-30T08:25:58.779Z,8.63
2019-03-30T08:28:27.239Z,9.27
2019-03-30T08:30:55.665Z,9.43
2019-03-30T08:33:24.319Z,9.10
2019-03-30T08:35:52.746Z,8.90
2019-03-30T08:38:21.413Z,8.87
2019-03-30T08:40:49.833Z,8.13
2019-03-30T08:43:18.503Z,7.97
2019-03-30T08:45:48.900Z,8.60
2019-03-30T08:48:17.052Z,9.67
2019-03-30T08:50:45.465Z,8.70
2019-03-30T08:53:14.137Z,8.30
2019-03-30T08:55:42.546Z,9.70
2019-03-30T08:58:11.342Z,8.23
2019-03-30T09:00:41.190Z,9.10
2019-03-30T09:03:10.093Z,8.80
2019-03-30T09:05:38.578Z,9.43
2019-03-30T09:08:07.008Z,8.70
2019-03-30T09:10:35.416Z,8.33
2019-03-30T09:13:03.871Z,8.53
2019-03-30T09:15:32.501Z,8.60
2019-03-30T09:18:01.183Z,8.87
2019-03-30T09:20:29.889Z,8.40
2019-03-30T09:22:58.726Z,9.17
2019-03-30T09:25:27.227Z,8.73
2019-03-30T09:27:55.374Z,8.43
2019-03-30T09:30:23.518Z,9.60
2019-03-30T09:32:51.670Z,9.30
2019-03-30T09:35:19.814Z,9.17
2019-03-30T09:37:47.977Z,8.50
2019-03-30T09:40:16.186Z,8.23
2019-03-30T09:42:44.600Z,9.00
2019-03-30T09:45:12.991Z,8.40
2019-03-30T09:47:41.139Z,8.40
2019-03-30T09:50:10.014Z,9.27
2019-03-30T09:52:38.453Z,9.30
2019-03-30T09:55:06.965Z,8.83
2019-03-30T09:57:35.119Z,8.50
2019-03-30T10:00:03.818Z,9.03
2019-03-30T10:02:31.962Z,9.20
2019-03-30T10:05:00.097Z,9.40
2019-03-30T10:07:28.326Z,9.23
2019-03-30T10:09:56.723Z,9.30
2019-03-30T10:12:24.869Z,10.10
2019-03-30T10:14:53.005Z,9.00
2019-03-30T10:17:21.155Z,9.13
2019-03-30T10:20:03.526Z,9.40
2019-03-30T10:22:20.249Z,9.50
2019-03-30T10:24:48.394Z,9.80
2019-03-30T10:27:16.537Z,10.97
2019-03-30T10:29:44.682Z,10.60
2019-03-30T10:32:13.096Z,10.20
2019-03-30T10:34:41.516Z,10.43
2019-03-30T10:37:09.652Z,9.53
2019-03-30T10:39:37.817Z,8.60
2019-03-30T10:42:05.951Z,10.00
2019-03-30T10:44:34.097Z,8.90
2019-03-30T10:47:03.614Z,8.60
2019-03-30T10:49:32.019Z,8.63
2019-03-30T10:52:00.434Z,9.77
2019-03-30T10:54:28.589Z,9.80
2019-03-30T10:56:56.807Z,8.73
2019-03-30T10:59:24.975Z,9.00
2019-03-30T11:01:53.358Z,9.20
2019-03-30T11:04:21.679Z,9.30
2019-03-30T11:06:49.824Z,9.83
2019-03-30T11:09:17.984Z,9.07
2019-03-30T11:11:46.146Z,8.77
2019-03-30T11:14:14.617Z,10.23
2019-03-30T11:16:42.755Z,10.47
2019-03-30T11:19:10.926Z,10.83
2019-03-30T11:21:39.441Z,11.00
2019-03-30T11:24:08.053Z,11.60
2019-03-30T11:26:36.539Z,9.07
2019-03-30T11:29:04.989Z,9.97
2019-03-30T11:31:33.649Z,9.07
2019-03-30T11:34:02.225Z,8.30
2019-03-30T11:36:30.756Z,10.27
2019-03-30T11:38:59.292Z,9.13
2019-03-30T11:41:27.716Z,8.90
2019-03-30T11:43:56.251Z,8.87
2019-03-30T11:46:24.875Z,9.80
2019-03-30T11:48:53.554Z,9.63
2019-03-30T11:51:22.030Z,10.37
2019-03-30T11:53:50.808Z,9.33
2019-03-30T11:56:19.326Z,9.80
2019-03-30T11:58:47.746Z,10.33
2019-03-30T12:01:16.431Z,9.60
2019-03-30T12:03:44.918Z,10.37
2019-03-30T12:06:13.353Z,9.93
2019-03-30T12:08:41.759Z,8.80
2019-03-30T12:11:10.408Z,8.47
2019-03-30T12:13:39.140Z,9.60
2019-03-30T12:16:07.877Z,9.50
2019-03-30T12:18:36.504Z,9.03
2019-03-30T12:21:05.269Z,8.43
2019-03-30T12:23:33.800Z,9.20
2019-03-30T12:26:02.240Z,9.20
2019-03-30T12:28:30.723Z,9.47
2019-03-30T12:30:59.235Z,9.20
2019-03-30T12:33:27.707Z,9.20
2019-03-30T12:35:56.188Z,8.60
2019-03-30T12:38:24.672Z,7.93
2019-03-30T12:40:53.331Z,9.00
2019-03-30T12:43:21.781Z,10.00
2019-03-30T12:45:50.526Z,9.40
2019-03-30T12:48:18.981Z,9.97
2019-03-30T12:50:47.422Z,10.10
2019-03-30T12:53:15.899Z,9.73
2019-03-30T12:55:49.607Z,8.93
2019-03-30T12:58:14.524Z,9.67
2019-03-30T13:00:42.959Z,9.87
2019-03-30T13:03:11.632Z,9.07
2019-03-30T13:05:40.060Z,10.87
2019-03-30T13:08:08.470Z,8.97
2019-03-30T13:10:37.142Z,9.43
2019-03-30T13:13:05.598Z,8.97
2019-03-30T13:15:34.563Z,9.77
2019-03-30T13:18:03.262Z,8.60
2019-03-30T13:20:31.682Z,10.67
2019-03-30T13:23:00.104Z,9.53
2019-03-30T13:25:30.536Z,10.13
2019-03-30T13:28:00.155Z,9.40
2019-03-30T13:30:28.678Z,11.70
2019-03-30T13:32:57.167Z,11.57
2019-03-30T13:35:25.599Z,10.30
2019-03-30T13:37:54.164Z,11.87
2019-03-30T13:40:22.686Z,10.50
2019-03-30T13:42:51.178Z,11.60
2019-03-30T13:45:19.591Z,11.17
2019-03-30T13:47:48.103Z,10.60
2019-03-30T13:50:16.922Z,10.10
2019-03-30T13:52:45.408Z,12.40
2019-03-30T13:55:14.604Z,10.63
2019-03-30T13:57:43.022Z,10.50
2019-03-30T14:00:11.849Z,11.20
2019-03-30T14:02:43.750Z,11.10
2019-03-30T14:05:10.848Z,11.70
2019-03-30T14:07:39.548Z,11.23
2019-03-30T14:10:08.763Z,10.50
2019-03-30T14:12:37.207Z,13.00
2019-03-30T14:15:09.228Z,11.60
2019-03-30T14:17:36.135Z,12.37
2019-03-30T14:20:06.690Z,11.63
2019-03-30T14:22:35.179Z,11.60
2019-03-30T14:25:05.608Z,13.20
2019-03-30T14:27:34.280Z,12.73
2019-03-30T14:30:02.759Z,12.47
2019-03-30T14:32:31.169Z,12.47
2019-03-30T14:34:59.862Z,13.10
2019-03-30T14:37:28.585Z,12.00
2019-03-30T14:39:57.048Z,11.53
2019-03-30T14:42:25.480Z,11.57
2019-03-30T14:44:53.898Z,13.90
2019-03-30T14:47:22.335Z,13.10
2019-03-30T14:49:50.756Z,11.03
2019-03-30T14:52:19.410Z,12.50
2019-03-30T14:54:53.137Z,12.27
2019-03-30T14:57:18.192Z,11.13
2019-03-30T14:59:46.635Z,12.37
2019-03-30T15:02:15.059Z,12.43
2019-03-30T15:04:43.841Z,11.23
2019-03-30T15:07:12.254Z,12.27
2019-03-30T15:09:40.695Z,12.90
2019-03-30T15:12:09.190Z,12.30
2019-03-30T15:14:37.636Z,12.07
2019-03-30T15:17:06.086Z,11.50
2019-03-30T15:19:34.517Z,10.70
2019-03-30T15:22:03.227Z,12.30
2019-03-30T15:24:31.688Z,12.73
2019-03-30T15:27:00.689Z,13.07
2019-03-30T15:29:29.328Z,12.00
2019-03-30T15:31:57.798Z,11.93
2019-03-30T15:34:26.492Z,11.60
2019-03-30T15:36:54.981Z,11.83
2019-03-30T15:39:23.705Z,11.40
2019-03-30T15:41:52.123Z,22.00
2019-03-30T15:44:20.546Z,15.60
2019-03-30T15:46:48.958Z,13.13
2019-03-30T15:49:17.391Z,12.30
2019-03-30T15:51:45.824Z,11.80
2019-03-30T15:54:14.252Z,12.20
2019-03-30T15:56:42.874Z,12.20
2019-03-30T15:59:11.362Z,11.57
2019-03-30T16:01:39.769Z,12.57
2019-03-30T16:04:08.194Z,11.83
2019-03-30T16:06:36.614Z,12.27
2019-03-30T16:09:06.590Z,12.70
2019-03-30T16:11:35.004Z,12.07
2019-03-30T16:14:03.431Z,11.50
2019-03-30T16:16:32.017Z,11.63
2019-03-30T16:19:00.536Z,12.70
2019-03-30T16:21:28.954Z,13.00
2019-03-30T16:23:57.374Z,12.07
2019-03-30T16:26:26.061Z,11.60
2019-03-30T16:28:54.478Z,11.90
2019-03-30T16:31:22.893Z,11.50
2019-03-30T16:33:51.315Z,12.40
2019-03-30T16:36:19.728Z,11.90
2019-03-30T16:38:48.395Z,12.40
2019-03-30T16:41:16.851Z,12.00
2019-03-30T16:43:45.298Z,11.60
2019-03-30T16:46:13.976Z,12.47
2019-03-30T16:48:42.395Z,11.73
2019-03-30T16:51:10.840Z,12.90
2019-03-30T16:53:39.273Z,12.30
2019-03-30T16:56:07.774Z,11.17
2019-03-30T16:58:36.186Z,11.27
2019-03-30T17:01:04.770Z,11.53
2019-03-30T17:03:33.194Z,10.03
2019-03-30T17:06:01.630Z,10.77
2019-03-30T17:08:30.047Z,10.30
2019-03-30T17:10:58.476Z,9.90
2019-03-30T17:13:27.139Z,10.70
2019-03-30T17:15:58.366Z,10.57
2019-03-30T17:18:25.702Z,10.77
2019-03-30T17:20:54.143Z,10.10
2019-03-30T17:23:22.565Z,10.60
2019-03-30T17:25:51.213Z,10.23
2019-03-30T17:28:19.661Z,10.10
2019-03-30T17:30:48.294Z,9.90
2019-03-30T17:33:16.745Z,8.93
2019-03-30T17:35:45.170Z,10.47
2019-03-30T17:38:13.816Z,9.50
2019-03-30T17:40:42.291Z,8.97
2019-03-30T17:43:10.699Z,9.67
2019-03-30T17:45:39.123Z,9.87
2019-03-30T17:48:08.067Z,9.30
2019-03-30T17:50:36.537Z,9.80
2019-03-30T17:53:04.973Z,8.70
2019-03-30T17:55:34.288Z,9.20
2019-03-30T17:58:12.976Z,9.93
2019-03-30T18:00:33.325Z,9.70
2019-03-30T18:03:01.741Z,9.70
2019-03-30T18:05:33.234Z,10.20
2019-03-30T18:08:01.848Z,9.90
2019-03-30T18:10:30.412Z,10.47
2019-03-30T18:12:59.083Z,11.47
2019-03-30T18:15:27.534Z,10.20
2019-03-30T18:17:56.897Z,11.70
2019-03-30T18:20:25.572Z,13.53
2019-03-30T18:22:53.997Z,17.07
2019-03-30T18:25:22.667Z,19.30
2019-03-30T18:27:51.201Z,17.83
2019-03-30T18:30:34.790Z,16.10
2019-03-30T18:33:03.274Z,14.60
2019-03-30T18:35:32.872Z,14.57
2019-03-30T18:38:03.001Z,13.43
2019-03-30T18:40:32.870Z,12.23
2019-03-30T18:43:02.929Z,11.40
2019-03-30T18:45:31.832Z,13.30
2019-03-30T18:48:11.262Z,10.80
2019-03-30T18:50:40.747Z,10.23
2019-03-30T18:53:09.808Z,11.50
2019-03-30T18:55:38.258Z,10.33
2019-03-30T18:58:06.847Z,9.93
2019-03-30T19:00:35.282Z,10.17
2019-03-30T19:03:03.707Z,10.33
2019-03-30T19:05:32.390Z,11.50
2019-03-30T19:08:01.347Z,13.27
2019-03-30T19:10:29.838Z,13.70
2019-03-30T19:12:58.473Z,12.00
2019-03-30T19:15:26.938Z,11.87
2019-03-30T19:17:55.375Z,12.77
2019-03-30T19:20:23.813Z,13.90
2019-03-30T19:22:52.245Z,13.57
2019-03-30T19:25:20.810Z,13.90
2019-03-30T19:27:49.274Z,14.03
2019-03-30T19:30:18.851Z,14.53
2019-03-30T19:32:47.278Z,15.53
2019-03-30T19:35:15.710Z,13.67
2019-03-30T19:37:44.139Z,16.17
2019-03-30T19:40:12.621Z,16.13
2019-03-30T19:42:41.062Z,16.17
2019-03-30T19:45:09.733Z,14.33
2019-03-30T19:47:38.193Z,15.40
2019-03-30T19:50:06.994Z,14.63
2019-03-30T19:52:40.065Z,14.87
2019-03-30T19:55:06.693Z,15.83
2019-03-30T19:57:35.168Z,14.80
2019-03-30T20:00:05.435Z,14.53
2019-03-30T20:02:33.894Z,14.10
2019-03-30T20:05:02.381Z,13.60
2019-03-30T20:07:30.813Z,12.00
2019-03-30T20:09:59.243Z,12.77
2019-03-30T20:12:27.741Z,11.83
2019-03-30T20:14:56.176Z,9.97
2019-03-30T20:17:24.599Z,10.13
2019-03-30T20:19:53.033Z,9.87
2019-03-30T20:22:21.464Z,10.17
2019-03-30T20:24:50.151Z,11.27
2019-03-30T20:27:18.590Z,9.90
2019-03-30T20:29:47.006Z,10.60
2019-03-30T20:32:15.446Z,10.00
2019-03-30T20:34:44.158Z,9.60
2019-03-30T20:37:12.587Z,11.40
2019-03-30T20:39:41.005Z,9.97
2019-03-30T20:42:09.442Z,10.70
2019-03-30T20:44:38.110Z,10.17
2019-03-30T20:47:06.752Z,9.20
2019-03-30T20:49:35.454Z,9.87
2019-03-30T20:52:03.887Z,10.20
2019-03-30T20:54:32.302Z,8.53
2019-03-30T20:57:00.944Z,9.50
2019-03-30T20:59:39.883Z,9.67
2019-03-30T21:01:59.555Z,8.90
2019-03-30T21:04:28.230Z,8.43
2019-03-30T21:06:56.662Z,7.80
2019-03-30T21:09:25.335Z,8.30
2019-03-30T21:11:54.189Z,7.70
2019-03-30T21:14:22.663Z,7.83
2019-03-30T21:16:51.080Z,7.80
2019-03-30T21:19:19.747Z,8.57
2019-03-30T21:21:48.165Z,8.40
2019-03-30T21:24:16.585Z,6.83
2019-03-30T21:26:45.259Z,7.83
2019-03-30T21:29:13.681Z,8.83
2019-03-30T21:31:42.097Z,7.60
2019-03-30T21:34:10.528Z,9.37
2019-03-30T21:36:38.946Z,9.20
2019-03-30T21:39:08.217Z,10.57
2019-03-30T21:41:36.680Z,9.17
2019-03-30T21:44:05.354Z,8.20
2019-03-30T21:46:34.036Z,8.27
2019-03-30T21:49:02.463Z,7.30
2019-03-30T21:51:31.106Z,8.40
2019-03-30T21:53:59.573Z,7.90
2019-03-30T21:56:27.989Z,7.47
2019-03-30T21:58:56.422Z,7.57
2019-03-30T22:01:24.838Z,7.30
2019-03-30T22:03:53.336Z,7.80
2019-03-30T22:06:22.045Z,8.03
2019-03-30T22:08:51.032Z,7.33
2019-03-30T22:11:19.445Z,6.63
2019-03-30T22:13:48.356Z,6.83
2019-03-30T22:16:17.064Z,7.80
2019-03-30T22:18:45.481Z,7.47
2019-03-30T22:21:14.161Z,9.17
2019-03-30T22:23:42.591Z,7.80
2019-03-30T22:26:11.279Z,8.80
2019-03-30T22:28:39.972Z,6.80
2019-03-30T22:31:08.637Z,7.87
2019-03-30T22:33:37.093Z,9.13
2019-03-30T22:36:05.886Z,8.50
2019-03-30T22:38:34.551Z,7.80
2019-03-30T22:41:03.013Z,9.50
2019-03-30T22:43:31.677Z,7.83
2019-03-30T22:46:00.111Z,7.50
2019-03-30T22:48:28.521Z,6.90
2019-03-30T22:50:57.038Z,7.10
2019-03-30T22:53:25.449Z,7.37
2019-03-30T22:55:53.899Z,6.57
2019-03-30T22:58:22.309Z,8.37
2019-03-30T23:01:01.774Z,7.00
2019-03-30T23:03:30.461Z,8.00
2019-03-30T23:05:59.225Z,7.53
2019-03-30T23:08:27.674Z,8.03
2019-03-30T23:10:56.093Z,7.53
2019-03-30T23:13:24.518Z,7.17
2019-03-30T23:15:52.949Z,7.90
2019-03-30T23:18:21.366Z,9.03
2019-03-30T23:20:49.797Z,9.33
2019-03-30T23:23:18.205Z,8.70
2019-03-30T23:25:46.641Z,9.50
2019-03-30T23:28:15.061Z,9.43
2019-03-30T23:30:53.996Z,8.80
2019-03-30T23:33:13.890Z,9.30
2019-03-30T23:35:42.530Z,9.30
2019-03-30T23:38:10.991Z,8.50
2019-03-30T23:40:39.422Z,8.67
2019-03-30T23:43:07.839Z,8.90
2019-03-30T23:45:36.279Z,9.85
2019-03-30T23:48:04.917Z,8.78
2019-03-30T23:50:33.388Z,8.60
2019-03-30T23:53:02.049Z,7.97
2019-03-30T23:55:30.474Z,8.73
2019-03-30T23:57:58.970Z,9.68
